Decoded Metar for OERF (RAFHA in SAUDI ARABIA) (IATA:RAH) | Meteo·Mobile Aviation Weather
aviador You're here:

OERF Decoded Metar

RAFHA in SAUDI ARABIA
Report Time2018-08-21 12:00:00
UTC Time2018-08-21 12:13:05
Flight Rules vfr VFR
Wind340° at 12 Gusting to 25 kt
W.Decomp.*RWY 29: 8.0 kt HW 8.9 kt RCW
W.Rank340° ranks 6
Current wind is above 340° avg. (7.7)
Visibility9999 m
Phenomena:N/A
Clouds:N/A
Expected CloudBase > 17,200 ft AGL from Temp-Dew spread
CeilingNone
Temp43°C (ISA +31)
Dew Point00°C (7% RH)
Heat Index39.2°C
AAT36.7°C
QNH1005 hPa
Density Alt5,259 ft
Elevation1,467 ft
Report Wrong Elevation
Raw Report
METAR OERF 211200Z 34012G25KT CAVOK 43/00 Q1005=

Extra information for OERF:More info

Metar Taf Metar & Taf Last 4 Metars F.Rules Stats Wind Profile Meteogram Temp Stats Airport Information Weather charts Add Link Nearby VenuesMetar ALERT Operation Metar Decoded Social comments